KMYV

Yuba County Airport

Marysville, California, USA
METAR KMYV 110153Z AUTO 27003KT 10SM CLR 09/06 A3015 RMK AO2 SLP213 T00890056
Observed Flight Rules
Dec-11 @ 01:53 UTC (33 minutes ago) Visual Flight Rules
Wind Visibility Clouds
270° at 3 knots 10 miles
  • Clear skies
Temperatures Readings
Current 9°C / 48°F
Dewpoint 6°C / 43°F
Humidity 82%
Altimeter 30.15" Hg
Pressure 1021.3 hPa
Elevation 21
METAR KMYV 110153Z AUTO 27003KT 10SM CLR 09/06 A3015 RMK AO2 SLP213 T00890056
Observed Flight Rules
Dec-11 @ 01:53 UTC
(33 minutes ago)
VFR
Wind Visibility
270° at 3 knots 10 miles
Clouds
  • Clear skies
Temperature Dewpoint
9°C / 48°F 6°C / 43°F
Humidity Altimeter Pressure
82% 30.15" Hg 1021.3 hPa